GLO1433 SBPV-SBEG
Flight info
| Callsign | GLO1433 |
|---|---|
| Flight time | 1h 7m |
| Altitude | 37000 |
| Route | MUPEG UZ74 IGAPO |
| Aircraft | B738/M-SDE2E3FGHIRWXY/LB1 |
Departure
| Time | 2026-04-21 03:12 |
|---|---|
| Airport | Governador Jorge Teixeira de Oliveira International Airport (SBPV) |
Arrival
| Time | 2026-04-21 04:20 |
|---|---|
| Airport | Eduardo Gomes International Airport (SBEG) |
| Time | Latitude | Longitude | Altitude | Speed | Heading |
|---|---|---|---|---|---|
| 2026-04-21 02:59 | -8.71459 | -63.89928 | 299 ft | 0 kts | 86° |
| 2026-04-21 03:04 | -8.71460 | -63.89932 | 299 ft | 2 kts | 86° |
| 2026-04-21 03:05 | -8.71461 | -63.89951 | 299 ft | 3 kts | 86° |
| 2026-04-21 03:05 | -8.71462 | -63.89972 | 299 ft | 3 kts | 86° |
| 2026-04-21 03:05 | -8.71464 | -63.89992 | 299 ft | 3 kts | 86° |
| 2026-04-21 03:05 | -8.71465 | -63.90012 | 299 ft | 3 kts | 86° |
| 2026-04-21 03:06 | -8.71466 | -63.90029 | 299 ft | 3 kts | 93° |
| 2026-04-21 03:06 | -8.71462 | -63.90046 | 303 ft | 3 kts | 134° |
| 2026-04-21 03:06 | -8.71447 | -63.90054 | 299 ft | 3 kts | 173° |
| 2026-04-21 03:06 | -8.71435 | -63.90055 | 299 ft | 0 kts | 176° |
| 2026-04-21 03:09 | -8.71438 | -63.90055 | 299 ft | 1 kts | 176° |
| 2026-04-21 03:09 | -8.71447 | -63.90054 | 302 ft | 2 kts | 176° |
| 2026-04-21 03:09 | -8.71464 | -63.90053 | 299 ft | 3 kts | 176° |
| 2026-04-21 03:09 | -8.71495 | -63.90051 | 299 ft | 7 kts | 176° |
| 2026-04-21 03:10 | -8.71555 | -63.90047 | 300 ft | 10 kts | 176° |
| 2026-04-21 03:10 | -8.71633 | -63.90044 | 301 ft | 12 kts | 178° |
| 2026-04-21 03:10 | -8.71712 | -63.90039 | 300 ft | 11 kts | 175° |
| 2026-04-21 03:10 | -8.71787 | -63.90033 | 298 ft | 11 kts | 175° |
| 2026-04-21 03:11 | -8.71858 | -63.90032 | 298 ft | 10 kts | 191° |
| 2026-04-21 03:11 | -8.71918 | -63.90069 | 299 ft | 11 kts | 220° |
| 2026-04-21 03:11 | -8.71973 | -63.90117 | 302 ft | 10 kts | 231° |
| 2026-04-21 03:11 | -8.71955 | -63.90164 | 300 ft | 7 kts | 337° |
| 2026-04-21 03:12 | -8.71817 | -63.90178 | 302 ft | 51 kts | 356° |
| 2026-04-21 03:12 | -8.71186 | -63.90216 | 302 ft | 126 kts | 356° |
| 2026-04-21 03:12 | -8.70155 | -63.90278 | 513 ft | 162 kts | 356° |
| 2026-04-21 03:12 | -8.69006 | -63.90348 | 1297 ft | 166 kts | 356° |
| 2026-04-21 03:13 | -8.67860 | -63.90436 | 1775 ft | 166 kts | 355° |
| 2026-04-21 03:13 | -8.67092 | -63.90494 | 1876 ft | 171 kts | 356° |
| 2026-04-21 03:13 | -8.65856 | -63.90842 | 2153 ft | 203 kts | 327° |
| 2026-04-21 03:13 | -8.64964 | -63.91973 | 2678 ft | 214 kts | 291° |
| 2026-04-21 03:14 | -8.64245 | -63.93857 | 3350 ft | 226 kts | 308° |
| 2026-04-21 03:14 | -8.63434 | -63.94599 | 3465 ft | 241 kts | 330° |
| 2026-04-21 03:14 | -8.61788 | -63.95058 | 3820 ft | 257 kts | 360° |
| 2026-04-21 03:14 | -8.59493 | -63.94279 | 4405 ft | 274 kts | 38° |
| 2026-04-21 03:15 | -8.58618 | -63.93350 | 4863 ft | 277 kts | 57° |
| 2026-04-21 03:15 | -8.57634 | -63.91676 | 5833 ft | 278 kts | 52° |
| 2026-04-21 03:15 | -8.56291 | -63.90271 | 6707 ft | 280 kts | 44° |
| 2026-04-21 03:15 | -8.54896 | -63.88870 | 7507 ft | 285 kts | 45° |
| 2026-04-21 03:16 | -8.53484 | -63.87442 | 8297 ft | 289 kts | 45° |
| 2026-04-21 03:16 | -8.52056 | -63.85996 | 9084 ft | 293 kts | 45° |
| 2026-04-21 03:16 | -8.50609 | -63.84533 | 9843 ft | 296 kts | 45° |
| 2026-04-21 03:16 | -8.49141 | -63.83049 | 10605 ft | 300 kts | 45° |
| 2026-04-21 03:17 | -8.47609 | -63.81605 | 11405 ft | 303 kts | 40° |
| 2026-04-21 03:17 | -8.45959 | -63.80268 | 12193 ft | 307 kts | 38° |
| 2026-04-21 03:17 | -8.44241 | -63.78935 | 12788 ft | 316 kts | 37° |
| 2026-04-21 03:17 | -8.42461 | -63.77560 | 13298 ft | 328 kts | 37° |
| 2026-04-21 03:18 | -8.40618 | -63.76128 | 13809 ft | 340 kts | 38° |
| 2026-04-21 03:18 | -8.38744 | -63.74663 | 14332 ft | 350 kts | 38° |
| 2026-04-21 03:18 | -8.36793 | -63.73127 | 14848 ft | 360 kts | 38° |
| 2026-04-21 03:18 | -8.34796 | -63.71550 | 15362 ft | 369 kts | 38° |
| 2026-04-21 03:19 | -8.32751 | -63.69928 | 15867 ft | 377 kts | 38° |
| 2026-04-21 03:19 | -8.30674 | -63.68278 | 16384 ft | 383 kts | 38° |
| 2026-04-21 03:19 | -8.28561 | -63.66599 | 16891 ft | 390 kts | 38° |
| 2026-04-21 03:19 | -8.26416 | -63.64893 | 17395 ft | 395 kts | 38° |
| 2026-04-21 03:20 | -8.24282 | -63.63197 | 18517 ft | 385 kts | 38° |
| 2026-04-21 03:20 | -8.22203 | -63.61547 | 19866 ft | 373 kts | 38° |
| 2026-04-21 03:20 | -8.20197 | -63.59953 | 21103 ft | 362 kts | 39° |
| 2026-04-21 03:20 | -8.18245 | -63.58403 | 22304 ft | 351 kts | 39° |
| 2026-04-21 03:21 | -8.16362 | -63.56906 | 23490 ft | 338 kts | 39° |
| 2026-04-21 03:21 | -8.14553 | -63.55470 | 24638 ft | 324 kts | 39° |
| 2026-04-21 03:21 | -8.12802 | -63.54082 | 25574 ft | 316 kts | 39° |
| 2026-04-21 03:21 | -8.11071 | -63.52706 | 26141 ft | 319 kts | 40° |
| 2026-04-21 03:22 | -8.09315 | -63.51310 | 26653 ft | 321 kts | 40° |
| 2026-04-21 03:22 | -8.07563 | -63.49917 | 27259 ft | 320 kts | 40° |
| 2026-04-21 03:22 | -8.05823 | -63.48536 | 27887 ft | 317 kts | 40° |
| 2026-04-21 03:22 | -8.04088 | -63.47158 | 28433 ft | 317 kts | 40° |
| 2026-04-21 03:23 | -8.02376 | -63.45799 | 28937 ft | 317 kts | 40° |
| 2026-04-21 03:23 | -8.00644 | -63.44424 | 29447 ft | 316 kts | 40° |
| 2026-04-21 03:23 | -7.98926 | -63.43059 | 29936 ft | 314 kts | 40° |
| 2026-04-21 03:23 | -7.97214 | -63.41700 | 30419 ft | 312 kts | 40° |
| 2026-04-21 03:24 | -7.95502 | -63.40341 | 30782 ft | 315 kts | 40° |
| 2026-04-21 03:24 | -7.93750 | -63.38948 | 30905 ft | 327 kts | 40° |
| 2026-04-21 03:24 | -7.91931 | -63.37504 | 31070 ft | 338 kts | 40° |
| 2026-04-21 03:24 | -7.90052 | -63.36013 | 31223 ft | 349 kts | 40° |
| 2026-04-21 03:25 | -7.88106 | -63.34470 | 31367 ft | 361 kts | 40° |
| 2026-04-21 03:25 | -7.86099 | -63.32885 | 31511 ft | 372 kts | 39° |
| 2026-04-21 03:25 | -7.83962 | -63.31336 | 31653 ft | 383 kts | 37° |
| 2026-04-21 03:25 | -7.81720 | -63.29826 | 31795 ft | 393 kts | 35° |
| 2026-04-21 03:26 | -7.79399 | -63.28301 | 31926 ft | 403 kts | 35° |
| 2026-04-21 03:26 | -7.77022 | -63.26743 | 32069 ft | 412 kts | 35° |
| 2026-04-21 03:26 | -7.74628 | -63.25163 | 32201 ft | 420 kts | 35° |
| 2026-04-21 03:26 | -7.72155 | -63.23520 | 32336 ft | 428 kts | 36° |
| 2026-04-21 03:27 | -7.69650 | -63.21849 | 32483 ft | 436 kts | 36° |
| 2026-04-21 03:27 | -7.67105 | -63.20148 | 32599 ft | 443 kts | 36° |
| 2026-04-21 03:27 | -7.64521 | -63.18414 | 32730 ft | 449 kts | 36° |
| 2026-04-21 03:27 | -7.61901 | -63.16659 | 32861 ft | 455 kts | 36° |
| 2026-04-21 03:28 | -7.59255 | -63.14889 | 32981 ft | 461 kts | 35° |
| 2026-04-21 03:28 | -7.56559 | -63.13084 | 33114 ft | 466 kts | 35° |
| 2026-04-21 03:28 | -7.53849 | -63.11271 | 33240 ft | 470 kts | 35° |
| 2026-04-21 03:28 | -7.51108 | -63.09439 | 33365 ft | 473 kts | 35° |
| 2026-04-21 03:29 | -7.48361 | -63.07603 | 33494 ft | 476 kts | 35° |
| 2026-04-21 03:29 | -7.45597 | -63.05757 | 33622 ft | 477 kts | 35° |
| 2026-04-21 03:29 | -7.42837 | -63.03916 | 33822 ft | 476 kts | 35° |
| 2026-04-21 03:29 | -7.40078 | -63.02076 | 34053 ft | 474 kts | 35° |
| 2026-04-21 03:30 | -7.37370 | -63.00268 | 34331 ft | 472 kts | 35° |
| 2026-04-21 03:30 | -7.34647 | -62.98450 | 34737 ft | 466 kts | 35° |
| 2026-04-21 03:30 | -7.31923 | -62.96633 | 35155 ft | 461 kts | 35° |
| 2026-04-21 03:30 | -7.29259 | -62.94856 | 35518 ft | 458 kts | 36° |
| 2026-04-21 03:31 | -7.26608 | -62.93086 | 35826 ft | 456 kts | 36° |
| 2026-04-21 03:31 | -7.23965 | -62.91323 | 36073 ft | 456 kts | 36° |
| 2026-04-21 03:31 | -7.21359 | -62.89582 | 36276 ft | 456 kts | 36° |
| 2026-04-21 03:31 | -7.18675 | -62.87789 | 36477 ft | 457 kts | 35° |
| 2026-04-21 03:32 | -7.16028 | -62.86022 | 36716 ft | 456 kts | 36° |
| 2026-04-21 03:32 | -7.13425 | -62.84285 | 36944 ft | 454 kts | 36° |
| 2026-04-21 03:32 | -7.08141 | -62.80762 | 36923 ft | 452 kts | 36° |
| 2026-04-21 03:33 | -7.02928 | -62.77288 | 36929 ft | 446 kts | 36° |
| 2026-04-21 03:33 | -6.97772 | -62.73849 | 36923 ft | 444 kts | 36° |
| 2026-04-21 03:34 | -6.92628 | -62.70418 | 36929 ft | 443 kts | 36° |
| 2026-04-21 03:34 | -6.87505 | -62.66974 | 36914 ft | 443 kts | 36° |
| 2026-04-21 03:35 | -6.82408 | -62.63543 | 36930 ft | 443 kts | 36° |
| 2026-04-21 03:35 | -6.77275 | -62.60088 | 36929 ft | 444 kts | 36° |
| 2026-04-21 03:36 | -6.72119 | -62.56622 | 36931 ft | 446 kts | 36° |
| 2026-04-21 03:36 | -6.66947 | -62.53149 | 36923 ft | 448 kts | 36° |
| 2026-04-21 03:37 | -6.61766 | -62.49664 | 36918 ft | 448 kts | 36° |
| 2026-04-21 03:37 | -6.56579 | -62.46177 | 36912 ft | 448 kts | 36° |
| 2026-04-21 03:38 | -6.51387 | -62.42691 | 36917 ft | 448 kts | 36° |
| 2026-04-21 03:38 | -6.46211 | -62.39256 | 36911 ft | 448 kts | 35° |
| 2026-04-21 03:39 | -6.41013 | -62.35823 | 36925 ft | 447 kts | 35° |
| 2026-04-21 03:39 | -6.35812 | -62.32388 | 36908 ft | 447 kts | 35° |
| 2026-04-21 03:40 | -6.30621 | -62.28954 | 36922 ft | 447 kts | 35° |
| 2026-04-21 03:40 | -6.25417 | -62.25514 | 36923 ft | 447 kts | 35° |
| 2026-04-21 03:41 | -6.20216 | -62.22073 | 36921 ft | 447 kts | 35° |
| 2026-04-21 03:41 | -6.15039 | -62.18650 | 36922 ft | 447 kts | 35° |
| 2026-04-21 03:42 | -6.09840 | -62.15213 | 36911 ft | 447 kts | 35° |
| 2026-04-21 03:42 | -6.04637 | -62.11774 | 36912 ft | 447 kts | 35° |
| 2026-04-21 03:43 | -5.99435 | -62.08337 | 36922 ft | 447 kts | 35° |
| 2026-04-21 03:43 | -5.94240 | -62.04905 | 36910 ft | 447 kts | 35° |
| 2026-04-21 03:44 | -5.89037 | -62.01469 | 36908 ft | 447 kts | 35° |
| 2026-04-21 03:44 | -5.83836 | -61.98036 | 36922 ft | 447 kts | 35° |
| 2026-04-21 03:45 | -5.78665 | -61.94621 | 36913 ft | 447 kts | 35° |
| 2026-04-21 03:45 | -5.73462 | -61.91186 | 36919 ft | 447 kts | 35° |
| 2026-04-21 03:46 | -5.68264 | -61.87756 | 36919 ft | 447 kts | 35° |
| 2026-04-21 03:46 | -5.63066 | -61.84326 | 36913 ft | 447 kts | 35° |
| 2026-04-21 03:47 | -5.57786 | -61.81002 | 36920 ft | 448 kts | 31° |
| 2026-04-21 03:47 | -5.52261 | -61.78049 | 36915 ft | 450 kts | 30° |
| 2026-04-21 03:48 | -5.46693 | -61.75157 | 36921 ft | 450 kts | 30° |
| 2026-04-21 03:48 | -5.41152 | -61.72234 | 36925 ft | 450 kts | 30° |
| 2026-04-21 03:49 | -5.35660 | -61.69299 | 36908 ft | 450 kts | 31° |
| 2026-04-21 03:49 | -5.30131 | -61.66337 | 36921 ft | 450 kts | 30° |
| 2026-04-21 03:50 | -5.24601 | -61.63372 | 36907 ft | 450 kts | 30° |
| 2026-04-21 03:50 | -5.19069 | -61.60406 | 36920 ft | 451 kts | 30° |
| 2026-04-21 03:51 | -5.13534 | -61.57443 | 36915 ft | 451 kts | 31° |
| 2026-04-21 03:51 | -5.07997 | -61.54476 | 36922 ft | 451 kts | 31° |
| 2026-04-21 03:52 | -5.02486 | -61.51527 | 36914 ft | 452 kts | 31° |
| 2026-04-21 03:52 | -4.96942 | -61.48560 | 36922 ft | 452 kts | 31° |
| 2026-04-21 03:53 | -4.91391 | -61.45591 | 36919 ft | 452 kts | 31° |
| 2026-04-21 03:53 | -4.85842 | -61.42621 | 36925 ft | 452 kts | 31° |
| 2026-04-21 03:54 | -4.80282 | -61.39648 | 36912 ft | 452 kts | 31° |
| 2026-04-21 03:54 | -4.74730 | -61.36681 | 36908 ft | 452 kts | 31° |
| 2026-04-21 03:55 | -4.69171 | -61.33708 | 36915 ft | 453 kts | 31° |
| 2026-04-21 03:55 | -4.63611 | -61.30735 | 36913 ft | 453 kts | 31° |
| 2026-04-21 03:56 | -4.58087 | -61.27783 | 36915 ft | 453 kts | 31° |
| 2026-04-21 03:56 | -4.52515 | -61.24806 | 36921 ft | 453 kts | 31° |
| 2026-04-21 03:57 | -4.46958 | -61.21835 | 36915 ft | 453 kts | 31° |
| 2026-04-21 03:57 | -4.41398 | -61.18866 | 36918 ft | 451 kts | 31° |
| 2026-04-21 03:58 | -4.35894 | -61.15924 | 36916 ft | 446 kts | 31° |
| 2026-04-21 03:58 | -4.30411 | -61.12996 | 36479 ft | 450 kts | 31° |
| 2026-04-21 03:59 | -4.27699 | -61.11549 | 35903 ft | 446 kts | 31° |
| 2026-04-21 03:59 | -4.24956 | -61.10086 | 35196 ft | 447 kts | 31° |
| 2026-04-21 03:59 | -4.22204 | -61.08617 | 34436 ft | 449 kts | 31° |
| 2026-04-21 04:00 | -4.16663 | -61.05659 | 32838 ft | 453 kts | 31° |
| 2026-04-21 04:00 | -4.13881 | -61.04176 | 31985 ft | 455 kts | 31° |
| 2026-04-21 04:00 | -4.11076 | -61.02679 | 31111 ft | 457 kts | 31° |
| 2026-04-21 04:00 | -4.08260 | -61.01175 | 30195 ft | 460 kts | 31° |
| 2026-04-21 04:01 | -4.05433 | -60.99665 | 29228 ft | 463 kts | 31° |
| 2026-04-21 04:01 | -4.02586 | -60.98144 | 28190 ft | 465 kts | 31° |
| 2026-04-21 04:01 | -3.99721 | -60.96615 | 27091 ft | 469 kts | 30° |
| 2026-04-21 04:01 | -3.96827 | -60.95070 | 25941 ft | 473 kts | 30° |
| 2026-04-21 04:02 | -3.93934 | -60.93529 | 25111 ft | 468 kts | 30° |
| 2026-04-21 04:02 | -3.91075 | -60.92004 | 24268 ft | 463 kts | 30° |
| 2026-04-21 04:02 | -3.89197 | -60.91003 | 23729 ft | 460 kts | 30° |
| 2026-04-21 04:02 | -3.86383 | -60.89503 | 22896 ft | 455 kts | 30° |
| 2026-04-21 04:03 | -3.83605 | -60.88022 | 22087 ft | 450 kts | 29° |
| 2026-04-21 04:03 | -3.80851 | -60.86553 | 21282 ft | 446 kts | 29° |
| 2026-04-21 04:03 | -3.78123 | -60.85097 | 20484 ft | 442 kts | 29° |
| 2026-04-21 04:03 | -3.75449 | -60.83670 | 19697 ft | 438 kts | 29° |
| 2026-04-21 04:04 | -3.72771 | -60.82242 | 18910 ft | 434 kts | 29° |
| 2026-04-21 04:04 | -3.70134 | -60.80785 | 18078 ft | 430 kts | 32° |
| 2026-04-21 04:04 | -3.67659 | -60.79100 | 17095 ft | 430 kts | 37° |
| 2026-04-21 04:04 | -3.65288 | -60.77291 | 16226 ft | 427 kts | 39° |
| 2026-04-21 04:05 | -3.62966 | -60.75468 | 15486 ft | 421 kts | 39° |
| 2026-04-21 04:05 | -3.60663 | -60.73672 | 14738 ft | 416 kts | 38° |
| 2026-04-21 04:05 | -3.58379 | -60.71919 | 13953 ft | 411 kts | 38° |
| 2026-04-21 04:05 | -3.56108 | -60.70198 | 13159 ft | 408 kts | 38° |
| 2026-04-21 04:06 | -3.53848 | -60.68502 | 12383 ft | 404 kts | 38° |
| 2026-04-21 04:06 | -3.51605 | -60.66826 | 11649 ft | 400 kts | 37° |
| 2026-04-21 04:06 | -3.49386 | -60.65170 | 11013 ft | 394 kts | 37° |
| 2026-04-21 04:06 | -3.47243 | -60.63573 | 10870 ft | 375 kts | 37° |
| 2026-04-21 04:07 | -3.45196 | -60.62047 | 10689 ft | 359 kts | 38° |
| 2026-04-21 04:07 | -3.43230 | -60.60580 | 10531 ft | 345 kts | 38° |
| 2026-04-21 04:07 | -3.41343 | -60.59171 | 10383 ft | 332 kts | 38° |
| 2026-04-21 04:07 | -3.39556 | -60.57838 | 10247 ft | 320 kts | 38° |
| 2026-04-21 04:08 | -3.37800 | -60.56528 | 10115 ft | 308 kts | 38° |
| 2026-04-21 04:08 | -3.36115 | -60.55270 | 9988 ft | 297 kts | 38° |
| 2026-04-21 04:08 | -3.34478 | -60.54047 | 9777 ft | 291 kts | 38° |
| 2026-04-21 04:08 | -3.32854 | -60.52833 | 9481 ft | 289 kts | 38° |
| 2026-04-21 04:09 | -3.31244 | -60.51631 | 9162 ft | 287 kts | 38° |
| 2026-04-21 04:09 | -3.29650 | -60.50441 | 8860 ft | 285 kts | 38° |
| 2026-04-21 04:09 | -3.28069 | -60.49264 | 8558 ft | 282 kts | 38° |
| 2026-04-21 04:09 | -3.26503 | -60.48093 | 8250 ft | 280 kts | 38° |
| 2026-04-21 04:10 | -3.24946 | -60.46929 | 7939 ft | 278 kts | 38° |
| 2026-04-21 04:10 | -3.23400 | -60.45777 | 7642 ft | 276 kts | 38° |
| 2026-04-21 04:10 | -3.21867 | -60.44636 | 7347 ft | 274 kts | 38° |
| 2026-04-21 04:10 | -3.20343 | -60.43503 | 7039 ft | 272 kts | 38° |
| 2026-04-21 04:11 | -3.18834 | -60.42378 | 6732 ft | 270 kts | 38° |
| 2026-04-21 04:11 | -3.17329 | -60.41259 | 6439 ft | 268 kts | 38° |
| 2026-04-21 04:11 | -3.15866 | -60.40168 | 6181 ft | 263 kts | 38° |
| 2026-04-21 04:11 | -3.14424 | -60.39095 | 5889 ft | 254 kts | 38° |
| 2026-04-21 04:12 | -3.13046 | -60.38069 | 5588 ft | 246 kts | 38° |
| 2026-04-21 04:12 | -3.11681 | -60.37054 | 5317 ft | 237 kts | 38° |
| 2026-04-21 04:12 | -3.10385 | -60.36087 | 5116 ft | 228 kts | 38° |
| 2026-04-21 04:12 | -3.09130 | -60.35151 | 4888 ft | 221 kts | 38° |
| 2026-04-21 04:13 | -3.07919 | -60.34249 | 4637 ft | 214 kts | 38° |
| 2026-04-21 04:13 | -3.06737 | -60.33367 | 4398 ft | 208 kts | 38° |
| 2026-04-21 04:13 | -3.05596 | -60.32519 | 4188 ft | 201 kts | 38° |
| 2026-04-21 04:13 | -3.04521 | -60.31702 | 4077 ft | 187 kts | 44° |
| 2026-04-21 04:14 | -3.03946 | -60.30608 | 3892 ft | 178 kts | 85° |
| 2026-04-21 04:14 | -3.03888 | -60.29353 | 3803 ft | 195 kts | 86° |
| 2026-04-21 04:14 | -3.03834 | -60.27942 | 3645 ft | 207 kts | 88° |
| 2026-04-21 04:14 | -3.03818 | -60.26496 | 3451 ft | 208 kts | 89° |
| 2026-04-21 04:15 | -3.03816 | -60.25045 | 3254 ft | 208 kts | 89° |
| 2026-04-21 04:15 | -3.03819 | -60.23632 | 3081 ft | 198 kts | 89° |
| 2026-04-21 04:15 | -3.03823 | -60.22312 | 3007 ft | 182 kts | 89° |
| 2026-04-21 04:15 | -3.03825 | -60.21064 | 2765 ft | 176 kts | 89° |
| 2026-04-21 04:16 | -3.03828 | -60.19870 | 2586 ft | 167 kts | 89° |
| 2026-04-21 04:16 | -3.03831 | -60.18735 | 2423 ft | 157 kts | 89° |
| 2026-04-21 04:16 | -3.03832 | -60.17686 | 2273 ft | 147 kts | 90° |
| 2026-04-21 04:16 | -3.03836 | -60.16678 | 2158 ft | 145 kts | 90° |
| 2026-04-21 04:17 | -3.03837 | -60.15590 | 2351 ft | 166 kts | 89° |
| 2026-04-21 04:17 | -3.03839 | -60.14402 | 1917 ft | 167 kts | 90° |
| 2026-04-21 04:17 | -3.03841 | -60.13304 | 1665 ft | 150 kts | 90° |
| 2026-04-21 04:17 | -3.03843 | -60.12304 | 1467 ft | 141 kts | 90° |
| 2026-04-21 04:18 | -3.03846 | -60.11316 | 1300 ft | 144 kts | 90° |
| 2026-04-21 04:18 | -3.03848 | -60.10305 | 1106 ft | 146 kts | 91° |
| 2026-04-21 04:18 | -3.03850 | -60.09309 | 909 ft | 145 kts | 90° |
| 2026-04-21 04:18 | -3.03852 | -60.08303 | 715 ft | 144 kts | 90° |
| 2026-04-21 04:19 | -3.03850 | -60.07299 | 511 ft | 144 kts | 90° |
| 2026-04-21 04:19 | -3.03854 | -60.06297 | 337 ft | 143 kts | 91° |
| 2026-04-21 04:19 | -3.03853 | -60.05321 | 267 ft | 131 kts | 90° |
| 2026-04-21 04:19 | -3.03858 | -60.04571 | 268 ft | 78 kts | 90° |
| 2026-04-21 04:20 | -3.03860 | -60.04226 | 270 ft | 33 kts | 90° |
| 2026-04-21 04:20 | -3.03861 | -60.04006 | 270 ft | 31 kts | 90° |
| 2026-04-21 04:20 | -3.03855 | -60.03825 | 270 ft | 21 kts | 72° |
| 2026-04-21 04:20 | -3.03742 | -60.03778 | 274 ft | 19 kts | 339° |
| 2026-04-21 04:21 | -3.03675 | -60.03877 | 271 ft | 18 kts | 286° |
| 2026-04-21 04:21 | -3.03643 | -60.03997 | 270 ft | 18 kts | 285° |
| 2026-04-21 04:21 | -3.03610 | -60.04116 | 270 ft | 18 kts | 285° |
| 2026-04-21 04:21 | -3.03572 | -60.04231 | 269 ft | 17 kts | 300° |
| 2026-04-21 04:22 | -3.03498 | -60.04321 | 269 ft | 17 kts | 320° |
| 2026-04-21 04:22 | -3.03397 | -60.04371 | 268 ft | 16 kts | 343° |
| 2026-04-21 04:22 | -3.03337 | -60.04447 | 268 ft | 15 kts | 266° |
| 2026-04-21 04:22 | -3.03353 | -60.04550 | 268 ft | 15 kts | 264° |
| 2026-04-21 04:23 | -3.03345 | -60.04618 | 267 ft | 7 kts | 316° |
| 2026-04-21 04:23 | -3.03302 | -60.04625 | 267 ft | 6 kts | 0° |
| 2026-04-21 04:23 | -3.03279 | -60.04624 | 267 ft | 0 kts | 1° |